createdAt,value
2017-11-14T00:00:34.659Z,7.85
2017-11-14T00:03:02.543Z,11.10
2017-11-14T00:05:30.560Z,12.95
2017-11-14T00:07:58.453Z,13.15
2017-11-14T00:10:26.424Z,11.25
2017-11-14T00:12:54.363Z,9.55
2017-11-14T00:15:22.328Z,13.30
2017-11-14T00:17:50.242Z,13.30
2017-11-14T00:20:18.207Z,11.10
2017-11-14T00:22:46.108Z,9.80
2017-11-14T00:25:14.056Z,10.13
2017-11-14T00:27:41.949Z,11.63
2017-11-14T00:30:09.915Z,9.00
2017-11-14T00:32:37.827Z,12.90
2017-11-14T00:35:05.772Z,11.27
2017-11-14T00:37:34.632Z,13.55
2017-11-14T00:40:02.597Z,15.98
2017-11-14T00:42:31.262Z,8.35
2017-11-14T00:44:59.216Z,13.15
2017-11-14T00:47:27.118Z,13.35
2017-11-14T00:49:55.835Z,10.85
2017-11-14T00:52:27.561Z,19.27
2017-11-14T00:54:55.527Z,11.00
2017-11-14T00:57:23.422Z,11.98
2017-11-14T00:59:51.338Z,10.18
2017-11-14T01:02:19.286Z,10.57
2017-11-14T01:04:47.181Z,9.63
2017-11-14T01:07:15.148Z,11.55
2017-11-14T01:09:43.115Z,11.32
2017-11-14T01:12:11.102Z,16.23
2017-11-14T01:14:39.006Z,14.30
2017-11-14T01:17:06.954Z,14.85
2017-11-14T01:19:35.724Z,11.65
2017-11-14T01:22:11.195Z,17.05
2017-11-14T01:24:39.861Z,12.48
2017-11-14T01:27:07.827Z,14.60
2017-11-14T01:29:35.746Z,17.92
2017-11-14T01:32:03.709Z,10.95
2017-11-14T01:34:31.622Z,11.02
2017-11-14T01:36:59.586Z,16.45
2017-11-14T01:39:27.520Z,17.92
2017-11-14T01:41:55.495Z,12.63
2017-11-14T01:44:23.419Z,15.45
2017-11-14T01:46:51.400Z,15.50
2017-11-14T01:49:19.311Z,9.40
2017-11-14T01:51:47.280Z,14.50
2017-11-14T01:54:15.212Z,17.98
2017-11-14T01:56:43.195Z,13.98
2017-11-14T01:59:11.094Z,14.55
2017-11-14T02:01:39.046Z,15.13
2017-11-14T02:04:06.982Z,12.73
2017-11-14T02:06:35.017Z,14.95
2017-11-14T02:09:03.038Z,18.23
2017-11-14T02:11:31.806Z,17.35
2017-11-14T02:13:59.859Z,21.98
2017-11-14T02:16:27.792Z,17.12
2017-11-14T02:18:55.770Z,24.37
2017-11-14T02:21:23.725Z,37.33
2017-11-14T02:23:52.526Z,44.25
2017-11-14T02:26:20.524Z,48.63
2017-11-14T02:28:48.574Z,56.60
2017-11-14T02:31:16.568Z,58.13
2017-11-14T02:33:44.599Z,59.47
2017-11-14T02:36:12.589Z,55.63
2017-11-14T02:38:40.622Z,55.88
2017-11-14T02:41:08.599Z,58.85
2017-11-14T02:43:37.421Z,49.55
2017-11-14T02:46:05.394Z,54.90
2017-11-14T02:48:33.400Z,53.05
2017-11-14T02:51:01.385Z,53.35
2017-11-14T02:53:29.379Z,45.33
2017-11-14T02:55:57.371Z,53.15
2017-11-14T02:58:25.361Z,55.10
2017-11-14T03:00:53.301Z,56.53
2017-11-14T03:03:21.278Z,58.90
2017-11-14T03:05:49.232Z,48.45
2017-11-14T03:08:17.208Z,58.00
2017-11-14T03:10:45.924Z,60.40
2017-11-14T03:13:17.614Z,44.00
2017-11-14T03:15:45.537Z,50.08
2017-11-14T03:18:13.552Z,49.53
2017-11-14T03:20:41.542Z,51.30
2017-11-14T03:23:09.491Z,40.28
2017-11-14T03:25:37.481Z,51.40
2017-11-14T03:28:05.462Z,53.67
2017-11-14T03:30:33.512Z,44.75
2017-11-14T03:33:01.440Z,46.97
2017-11-14T03:35:29.389Z,50.72
2017-11-14T03:37:57.412Z,39.72
2017-11-14T03:40:25.463Z,47.50
2017-11-14T03:42:53.569Z,49.63
2017-11-14T03:45:21.583Z,56.15
2017-11-14T03:47:49.514Z,49.33
2017-11-14T03:50:17.567Z,40.33
2017-11-14T03:52:47.717Z,44.38
2017-11-14T03:55:15.728Z,43.35
2017-11-14T03:57:43.666Z,45.28
2017-11-14T04:00:11.710Z,46.42
2017-11-14T04:02:39.666Z,48.38
2017-11-14T04:05:13.101Z,42.72
2017-11-14T04:07:41.002Z,40.55
2017-11-14T04:10:09.044Z,40.05
2017-11-14T04:12:37.809Z,47.33
2017-11-14T04:15:05.833Z,48.30
2017-11-14T04:17:33.734Z,39.75
2017-11-14T04:20:01.723Z,41.65
2017-11-14T04:22:29.717Z,40.88
2017-11-14T04:24:58.454Z,50.40
2017-11-14T04:27:26.357Z,38.97
2017-11-14T04:29:54.272Z,43.28
2017-11-14T04:32:22.242Z,57.67
2017-11-14T04:34:50.396Z,38.45
2017-11-14T04:37:18.371Z,50.78
2017-11-14T04:39:46.313Z,35.80
2017-11-14T04:42:14.285Z,37.38
2017-11-14T04:44:42.198Z,39.95
2017-11-14T04:47:10.162Z,38.35
2017-11-14T04:49:38.079Z,41.33
2017-11-14T04:52:07.265Z,40.00
2017-11-14T04:54:35.186Z,43.40
2017-11-14T04:57:03.959Z,37.75
2017-11-14T04:59:32.626Z,41.58
2017-11-14T05:02:00.575Z,29.80
2017-11-14T05:04:28.486Z,35.70
2017-11-14T05:06:57.206Z,38.40
2017-11-14T05:09:25.114Z,45.53
2017-11-14T05:11:53.075Z,49.70
2017-11-14T05:14:20.975Z,34.17
2017-11-14T05:16:48.929Z,30.17
2017-11-14T05:19:16.818Z,36.17
2017-11-14T05:21:48.836Z,29.80
2017-11-14T05:24:16.751Z,34.95
2017-11-14T05:26:45.495Z,30.70
2017-11-14T05:29:13.430Z,35.10
2017-11-14T05:31:41.407Z,24.50
2017-11-14T05:34:09.297Z,31.45
2017-11-14T05:36:37.204Z,27.77
2017-11-14T05:39:14.879Z,25.83
2017-11-14T05:41:48.142Z,38.72
2017-11-14T05:44:17.146Z,34.58
2017-11-14T05:46:45.062Z,31.95
2017-11-14T05:49:13.020Z,27.50
2017-11-14T05:51:40.914Z,33.05
2017-11-14T05:54:09.641Z,29.10
2017-11-14T05:56:43.504Z,28.45
2017-11-14T05:59:16.833Z,26.37
2017-11-14T06:01:45.801Z,32.08
2017-11-14T06:04:13.774Z,40.15
2017-11-14T06:06:41.685Z,35.70
2017-11-14T06:09:09.643Z,32.50
2017-11-14T06:11:37.542Z,32.47
2017-11-14T06:14:05.495Z,27.98
2017-11-14T06:16:33.398Z,35.88
2017-11-14T06:19:01.363Z,34.25
2017-11-14T06:21:29.303Z,32.35
2017-11-14T06:23:57.297Z,30.83
2017-11-14T06:26:25.219Z,41.47
2017-11-14T06:28:53.188Z,31.52
2017-11-14T06:31:21.105Z,38.05
2017-11-14T06:33:49.287Z,27.20
2017-11-14T06:36:17.185Z,29.20
2017-11-14T06:38:45.151Z,36.20
2017-11-14T06:41:13.090Z,33.83
2017-11-14T06:43:41.063Z,37.42
2017-11-14T06:46:08.958Z,31.70
2017-11-14T06:48:37.697Z,35.58
2017-11-14T06:51:05.603Z,32.65
2017-11-14T06:53:33.604Z,27.73
2017-11-14T06:56:01.504Z,29.77
2017-11-14T06:58:29.476Z,26.67
2017-11-14T07:00:57.377Z,27.75
2017-11-14T07:03:25.482Z,22.85
2017-11-14T07:05:53.453Z,25.73
2017-11-14T07:08:21.358Z,30.95
2017-11-14T07:10:49.314Z,21.37
2017-11-14T07:13:17.205Z,30.10
2017-11-14T07:15:45.178Z,27.13
2017-11-14T07:18:13.102Z,30.30
2017-11-14T07:20:41.065Z,28.45
2017-11-14T07:23:09.002Z,21.00
2017-11-14T07:25:37.025Z,24.65
2017-11-14T07:28:04.922Z,23.38
2017-11-14T07:30:32.885Z,25.62
2017-11-14T07:33:02.031Z,24.75
2017-11-14T07:35:30.785Z,23.62
2017-11-14T07:37:58.702Z,23.55
2017-11-14T07:40:26.673Z,23.77
2017-11-14T07:42:54.581Z,22.48
2017-11-14T07:45:22.563Z,24.40
2017-11-14T07:47:50.483Z,23.25
2017-11-14T07:50:18.435Z,23.80
2017-11-14T07:52:46.369Z,25.10
2017-11-14T07:55:14.351Z,26.52
2017-11-14T07:57:42.266Z,27.42
2017-11-14T08:00:10.240Z,22.17
2017-11-14T08:02:38.324Z,17.23
2017-11-14T08:05:06.278Z,15.55
2017-11-14T08:07:34.249Z,14.98
2017-11-14T08:10:02.138Z,17.02
2017-11-14T08:12:30.116Z,16.95
2017-11-14T08:14:58.084Z,13.20
2017-11-14T08:17:26.092Z,13.20
2017-11-14T08:19:54.071Z,22.45
2017-11-14T08:22:22.015Z,15.43
2017-11-14T08:24:50.001Z,15.85
2017-11-14T08:27:17.970Z,18.77
2017-11-14T08:29:45.913Z,20.83
2017-11-14T08:32:14.013Z,22.62
2017-11-14T08:34:41.924Z,16.30
2017-11-14T08:37:09.997Z,18.33
2017-11-14T08:39:37.906Z,13.80
2017-11-14T08:42:05.909Z,18.27
2017-11-14T08:44:34.600Z,14.15
2017-11-14T08:47:03.317Z,14.45
2017-11-14T08:49:31.220Z,15.82
2017-11-14T08:51:59.207Z,15.25
2017-11-14T08:54:27.156Z,13.23
2017-11-14T08:56:55.167Z,16.93
2017-11-14T08:59:23.890Z,16.33
2017-11-14T09:01:51.938Z,15.20
2017-11-14T09:04:19.890Z,17.80
2017-11-14T09:06:48.676Z,23.30
2017-11-14T09:09:16.611Z,15.87
2017-11-14T09:11:44.612Z,18.80
2017-11-14T09:14:12.622Z,22.10
2017-11-14T09:16:40.556Z,19.97
2017-11-14T09:19:08.562Z,18.00
2017-11-14T09:21:36.552Z,17.53
2017-11-14T09:24:04.577Z,15.67
2017-11-14T09:26:33.324Z,18.30
2017-11-14T09:29:01.359Z,15.27
2017-11-14T09:31:29.372Z,14.80
2017-11-14T09:33:57.355Z,11.33
2017-11-14T09:36:25.307Z,14.50
2017-11-14T09:38:53.349Z,20.00
2017-11-14T09:41:21.355Z,10.03
2017-11-14T09:43:49.406Z,10.80
2017-11-14T09:46:17.381Z,17.93
2017-11-14T09:48:45.406Z,14.57
2017-11-14T09:51:14.131Z,11.63
2017-11-14T09:53:42.609Z,10.13
2017-11-14T09:56:10.778Z,10.33
2017-11-14T09:58:38.796Z,11.30
2017-11-14T10:01:06.774Z,9.83
2017-11-14T10:03:34.883Z,15.57
2017-11-14T10:06:10.057Z,13.07
2017-11-14T10:08:38.311Z,18.07
2017-11-14T10:11:06.323Z,6.93
2017-11-14T10:13:37.959Z,9.97
2017-11-14T10:16:05.941Z,7.63
2017-11-14T10:18:33.972Z,9.53
2017-11-14T10:21:02.281Z,11.40
2017-11-14T10:23:30.843Z,12.17
2017-11-14T10:25:58.903Z,13.77
2017-11-14T10:28:26.896Z,9.93
2017-11-14T10:30:54.926Z,12.67
2017-11-14T10:33:23.710Z,7.20
2017-11-14T10:35:51.765Z,8.57
2017-11-14T10:38:19.766Z,13.73
2017-11-14T10:40:48.643Z,11.60
2017-11-14T10:43:17.926Z,9.57
2017-11-14T10:45:46.009Z,12.00
2017-11-14T10:48:13.995Z,14.57
2017-11-14T10:50:42.040Z,8.17
2017-11-14T10:53:10.045Z,10.90
2017-11-14T10:55:38.853Z,20.80
2017-11-14T10:58:06.826Z,14.60
2017-11-14T11:00:42.225Z,10.00
2017-11-14T11:03:10.184Z,9.37
2017-11-14T11:05:38.235Z,9.03
2017-11-14T11:08:06.229Z,10.53
2017-11-14T11:10:34.257Z,14.83
2017-11-14T11:13:02.496Z,9.43
2017-11-14T11:15:30.504Z,15.90
2017-11-14T11:17:58.581Z,8.47
2017-11-14T11:20:26.614Z,11.53
2017-11-14T11:22:55.078Z,12.73
2017-11-14T11:25:23.438Z,9.67
2017-11-14T11:27:53.091Z,13.23
2017-11-14T11:30:21.114Z,14.43
2017-11-14T11:32:51.996Z,10.67
2017-11-14T11:35:20.008Z,13.23
2017-11-14T11:37:48.015Z,11.20
2017-11-14T11:40:18.264Z,7.90
2017-11-14T11:42:47.066Z,10.57
2017-11-14T11:45:15.089Z,8.27
2017-11-14T11:47:43.133Z,9.73
2017-11-14T11:50:11.091Z,10.33
2017-11-14T11:52:39.286Z,11.53
2017-11-14T11:55:09.167Z,8.50
2017-11-14T11:57:37.180Z,10.13
2017-11-14T12:00:05.161Z,8.63
2017-11-14T12:02:33.192Z,7.90
2017-11-14T12:05:01.119Z,8.87
2017-11-14T12:07:30.187Z,8.90
2017-11-14T12:09:58.204Z,8.20
2017-11-14T12:12:26.232Z,14.80
2017-11-14T12:14:54.204Z,10.87
2017-11-14T12:17:23.068Z,8.53
2017-11-14T12:19:51.049Z,10.80
2017-11-14T12:22:19.203Z,11.73
2017-11-14T12:24:51.661Z,7.37
2017-11-14T12:27:19.668Z,14.70
2017-11-14T12:29:50.155Z,11.30
2017-11-14T12:32:18.184Z,13.13
2017-11-14T12:34:46.177Z,7.43
2017-11-14T12:37:14.159Z,10.88
2017-11-14T12:39:42.112Z,12.75
2017-11-14T12:42:10.095Z,10.18
2017-11-14T12:44:38.014Z,7.18
2017-11-14T12:47:05.967Z,9.98
2017-11-14T12:49:34.742Z,8.48
2017-11-14T12:52:02.695Z,16.67
2017-11-14T12:54:30.708Z,8.13
2017-11-14T12:56:58.613Z,7.80
2017-11-14T12:59:26.609Z,9.68
2017-11-14T13:01:54.598Z,9.82
2017-11-14T13:04:22.599Z,4.60
2017-11-14T13:06:50.515Z,9.80
2017-11-14T13:09:18.540Z,7.07
2017-11-14T13:11:46.452Z,7.37
2017-11-14T13:14:14.439Z,12.18
2017-11-14T13:16:42.365Z,7.20
2017-11-14T13:19:10.383Z,10.02
2017-11-14T13:21:38.543Z,9.82
2017-11-14T13:24:06.514Z,9.15
2017-11-14T13:26:34.414Z,8.73
2017-11-14T13:29:03.123Z,9.85
2017-11-14T13:31:31.074Z,7.90
2017-11-14T13:33:59.715Z,7.20
2017-11-14T13:36:28.244Z,10.40
2017-11-14T13:38:56.213Z,6.22
2017-11-14T13:41:24.095Z,5.05
2017-11-14T13:43:52.025Z,10.20
2017-11-14T13:46:20.110Z,6.97
2017-11-14T13:48:48.110Z,17.62
2017-11-14T13:51:16.010Z,9.65
2017-11-14T13:53:43.905Z,10.73
2017-11-14T13:56:11.855Z,7.03
2017-11-14T13:58:39.739Z,12.50
2017-11-14T14:01:07.721Z,6.07
2017-11-14T14:03:41.541Z,6.05
2017-11-14T14:06:09.505Z,6.15
2017-11-14T14:08:38.171Z,7.35
2017-11-14T14:11:06.146Z,14.30
2017-11-14T14:13:34.053Z,4.97
2017-11-14T14:16:01.997Z,12.32
2017-11-14T14:18:29.907Z,13.10
2017-11-14T14:20:57.833Z,5.70
2017-11-14T14:23:25.726Z,6.85
2017-11-14T14:25:54.482Z,10.07
2017-11-14T14:28:22.406Z,7.65
2017-11-14T14:30:50.353Z,7.80
2017-11-14T14:33:18.292Z,8.00
2017-11-14T14:35:46.240Z,6.35
2017-11-14T14:38:14.114Z,7.18
2017-11-14T14:40:42.060Z,11.65
2017-11-14T14:43:09.948Z,6.40
2017-11-14T14:45:37.902Z,8.65
2017-11-14T14:48:05.852Z,6.78
2017-11-14T14:50:33.793Z,8.35
2017-11-14T14:53:01.682Z,5.85
2017-11-14T14:55:29.638Z,9.05
2017-11-14T14:57:57.545Z,7.97
2017-11-14T15:00:25.497Z,10.98
2017-11-14T15:02:54.597Z,11.12
2017-11-14T15:05:22.522Z,6.93
2017-11-14T15:07:50.466Z,9.23
2017-11-14T15:10:18.358Z,5.18
2017-11-14T15:12:46.334Z,5.05
2017-11-14T15:15:14.237Z,9.93
2017-11-14T15:17:42.179Z,6.47
2017-11-14T15:20:10.088Z,6.18
2017-11-14T15:22:38.040Z,44.50
2017-11-14T15:25:05.975Z,57.65
2017-11-14T15:27:33.923Z,12.13
2017-11-14T15:30:01.908Z,17.35
2017-11-14T15:32:29.966Z,13.85
2017-11-14T15:34:57.876Z,19.30
2017-11-14T15:37:25.815Z,12.32
2017-11-14T15:39:53.718Z,78.00
2017-11-14T15:42:25.633Z,11.12
2017-11-14T15:44:53.532Z,11.02
2017-11-14T15:47:21.489Z,12.00
2017-11-14T15:49:49.386Z,19.92
2017-11-14T15:52:17.333Z,8.15
2017-11-14T15:54:45.219Z,13.32
2017-11-14T15:57:13.183Z,15.18
2017-11-14T15:59:41.084Z,10.75
2017-11-14T16:02:09.052Z,9.50
2017-11-14T16:04:36.949Z,13.77
2017-11-14T16:07:04.843Z,11.98
2017-11-14T16:09:32.805Z,14.95
2017-11-14T16:12:00.703Z,10.82
2017-11-14T16:14:28.700Z,13.68
2017-11-14T16:16:56.782Z,9.68
2017-11-14T16:19:24.728Z,9.20
2017-11-14T16:21:56.460Z,23.58
2017-11-14T16:24:24.448Z,21.55
2017-11-14T16:26:52.339Z,12.15
2017-11-14T16:29:20.291Z,50.28
2017-11-14T16:31:48.300Z,14.87
2017-11-14T16:34:16.285Z,16.23
2017-11-14T16:36:44.235Z,12.50
2017-11-14T16:39:12.175Z,12.80
2017-11-14T16:41:40.837Z,10.35
2017-11-14T16:44:08.856Z,10.23
2017-11-14T16:46:37.358Z,16.20
2017-11-14T16:49:05.382Z,13.20
2017-11-14T16:51:34.060Z,14.93
2017-11-14T16:54:02.777Z,11.52
2017-11-14T16:56:30.701Z,13.57
2017-11-14T16:58:58.688Z,13.40
2017-11-14T17:01:26.610Z,21.85
2017-11-14T17:03:54.579Z,11.32
2017-11-14T17:06:22.511Z,15.07
2017-11-14T17:08:51.241Z,13.62
2017-11-14T17:11:19.214Z,10.98
2017-11-14T17:13:48.342Z,14.25
2017-11-14T17:16:16.228Z,15.75
2017-11-14T17:18:44.234Z,17.23
2017-11-14T17:21:12.143Z,15.77
2017-11-14T17:23:40.059Z,12.48
2017-11-14T17:26:08.011Z,17.40
2017-11-14T17:28:36.672Z,13.93
2017-11-14T17:31:04.665Z,13.05
2017-11-14T17:33:32.575Z,15.93
2017-11-14T17:36:00.512Z,10.48
2017-11-14T17:38:28.403Z,14.57
2017-11-14T17:40:56.355Z,13.02
2017-11-14T17:43:24.509Z,14.95
2017-11-14T17:45:53.211Z,21.73
2017-11-14T17:48:21.177Z,18.37
2017-11-14T17:50:49.141Z,12.82
2017-11-14T17:53:17.835Z,18.25
2017-11-14T17:55:45.799Z,19.30
2017-11-14T17:58:14.466Z,19.40
2017-11-14T18:00:42.427Z,19.98
2017-11-14T18:03:10.357Z,17.48
2017-11-14T18:05:38.312Z,19.48
2017-11-14T18:08:06.233Z,21.08
2017-11-14T18:10:34.178Z,16.35
2017-11-14T18:13:02.069Z,19.17
2017-11-14T18:15:30.056Z,19.35
2017-11-14T18:17:57.951Z,18.92
2017-11-14T18:20:25.902Z,18.98
2017-11-14T18:22:53.817Z,21.35
2017-11-14T18:25:21.709Z,21.95
2017-11-14T18:27:49.668Z,15.98
2017-11-14T18:30:17.549Z,14.85
2017-11-14T18:32:45.509Z,17.25
2017-11-14T18:35:18.745Z,17.83
2017-11-14T18:37:46.986Z,18.42
2017-11-14T18:40:15.095Z,17.35
2017-11-14T18:42:43.840Z,20.75
2017-11-14T18:45:11.760Z,18.95
2017-11-14T18:47:39.717Z,20.30
2017-11-14T18:50:08.409Z,19.58
2017-11-14T18:52:36.356Z,15.90
2017-11-14T18:55:04.271Z,16.60
2017-11-14T18:57:32.240Z,20.73
2017-11-14T19:00:00.154Z,20.60
2017-11-14T19:02:28.122Z,18.67
2017-11-14T19:04:56.029Z,22.42
2017-11-14T19:07:23.945Z,12.20
2017-11-14T19:09:51.879Z,23.75
2017-11-14T19:12:21.938Z,23.00
2017-11-14T19:14:49.894Z,23.67
2017-11-14T19:17:17.838Z,20.60
2017-11-14T19:19:45.791Z,24.17
2017-11-14T19:22:14.495Z,21.20
2017-11-14T19:24:42.394Z,21.83
2017-11-14T19:27:10.336Z,24.08
2017-11-14T19:29:38.288Z,23.90
2017-11-14T19:32:07.098Z,18.98
2017-11-14T19:34:34.998Z,21.85
2017-11-14T19:37:02.911Z,22.87
2017-11-14T19:39:30.923Z,22.60
2017-11-14T19:41:58.835Z,21.87
2017-11-14T19:44:26.806Z,31.20
2017-11-14T19:46:54.710Z,20.35
2017-11-14T19:49:22.680Z,20.27
2017-11-14T19:51:50.587Z,21.67
2017-11-14T19:54:18.533Z,24.30
2017-11-14T19:56:46.645Z,20.10
2017-11-14T19:59:14.599Z,20.30
2017-11-14T20:01:42.504Z,21.00
2017-11-14T20:04:10.470Z,19.80
2017-11-14T20:06:38.381Z,17.50
2017-11-14T20:09:06.351Z,17.50
2017-11-14T20:11:34.257Z,22.87
2017-11-14T20:14:02.297Z,16.50
2017-11-14T20:16:32.521Z,24.12
2017-11-14T20:19:00.483Z,19.95
2017-11-14T20:21:28.475Z,20.70
2017-11-14T20:23:57.571Z,18.00
2017-11-14T20:26:25.495Z,22.25
2017-11-14T20:28:53.494Z,19.58
2017-11-14T20:31:21.398Z,26.23
2017-11-14T20:33:49.402Z,19.12
2017-11-14T20:36:18.065Z,24.15
2017-11-14T20:38:46.117Z,20.85
2017-11-14T20:41:14.003Z,18.80
2017-11-14T20:43:41.912Z,25.27
2017-11-14T20:46:09.973Z,18.83
2017-11-14T20:48:37.893Z,20.30
2017-11-14T20:51:07.639Z,26.08
2017-11-14T20:53:35.629Z,18.73
2017-11-14T20:56:04.372Z,20.77
2017-11-14T20:58:32.275Z,18.17
2017-11-14T21:01:01.045Z,20.33
2017-11-14T21:03:29.000Z,16.35
2017-11-14T21:05:56.965Z,16.50
2017-11-14T21:08:24.929Z,26.12
2017-11-14T21:10:52.951Z,17.85
2017-11-14T21:13:21.626Z,19.73
2017-11-14T21:15:49.583Z,21.40
2017-11-14T21:18:17.482Z,20.75
2017-11-14T21:20:46.189Z,26.98
2017-11-14T21:23:14.267Z,22.98
2017-11-14T21:25:42.269Z,18.92
2017-11-14T21:28:11.802Z,17.12
2017-11-14T21:30:39.820Z,20.75
2017-11-14T21:33:07.737Z,19.10
2017-11-14T21:35:35.688Z,18.25
2017-11-14T21:38:03.649Z,16.67
2017-11-14T21:40:31.601Z,18.33
2017-11-14T21:42:59.501Z,19.15
2017-11-14T21:45:27.545Z,22.27
2017-11-14T21:47:55.444Z,20.27
2017-11-14T21:50:23.436Z,20.55
2017-11-14T21:52:52.369Z,17.20
2017-11-14T21:55:20.263Z,24.90
2017-11-14T21:57:48.225Z,19.62
2017-11-14T22:00:16.131Z,23.65
2017-11-14T22:02:44.103Z,19.85
2017-11-14T22:05:12.043Z,23.45
2017-11-14T22:07:39.983Z,22.65
2017-11-14T22:10:07.887Z,22.00
2017-11-14T22:12:35.831Z,18.98
2017-11-14T22:15:03.759Z,19.33
2017-11-14T22:17:31.718Z,20.83
2017-11-14T22:19:59.624Z,20.85
2017-11-14T22:22:27.728Z,21.20
2017-11-14T22:24:55.651Z,27.45
2017-11-14T22:27:23.820Z,18.60
2017-11-14T22:29:52.591Z,24.65
2017-11-14T22:32:20.533Z,20.12
2017-11-14T22:34:48.443Z,22.42
2017-11-14T22:37:16.393Z,27.15
2017-11-14T22:39:44.286Z,26.70
2017-11-14T22:42:14.144Z,22.37
2017-11-14T22:44:42.058Z,23.02
2017-11-14T22:47:10.006Z,24.90
2017-11-14T22:49:37.917Z,22.95
2017-11-14T22:52:09.815Z,21.30
2017-11-14T22:54:37.729Z,26.35
2017-11-14T22:57:05.696Z,23.17
2017-11-14T22:59:33.622Z,21.17
2017-11-14T23:02:01.599Z,30.20
2017-11-14T23:04:29.496Z,26.27
2017-11-14T23:06:57.398Z,25.67
2017-11-14T23:09:25.353Z,25.25
2017-11-14T23:11:54.037Z,22.02
2017-11-14T23:14:22.770Z,28.85
2017-11-14T23:16:50.657Z,25.08
2017-11-14T23:19:18.669Z,28.83
2017-11-14T23:21:46.639Z,34.03
2017-11-14T23:24:15.355Z,28.65
2017-11-14T23:26:43.262Z,25.42
2017-11-14T23:29:11.221Z,27.45
2017-11-14T23:31:39.146Z,28.02
2017-11-14T23:34:07.599Z,33.78
2017-11-14T23:36:36.605Z,29.08
2017-11-14T23:39:05.357Z,31.65
2017-11-14T23:41:33.263Z,24.70
2017-11-14T23:44:02.096Z,25.33
2017-11-14T23:46:30.296Z,24.25
2017-11-14T23:48:58.465Z,25.85
2017-11-14T23:51:26.369Z,28.23
2017-11-14T23:53:54.363Z,32.20
2017-11-14T23:56:22.263Z,25.37
2017-11-14T23:58:50.259Z,30.30
